Time;durP1;ratioP1;P1;durP2;ratioP2;P2;SDS_P1;SDS_P2;PMS_P1;PMS_P2;Temp;Humidity;BMP_temperature;BMP_pressure;BME280_temperature;BME280_humidity;BME280_pressure;Samples;Min_cycle;Max_cycle;Signal;HPM_P1;HPM_P2
2023/12/11 00:01:38;;;;;;;1.00;0.60;;;;;;;11.72;100.00;101386.03;5022992;28;20670;-83
2023/12/11 00:04:07;;;;;;;0.80;0.60;;;;;;;11.73;100.00;101377.44;5026478;28;20054;-82
2023/12/11 00:06:37;;;;;;;1.70;0.60;;;;;;;11.74;100.00;101385.25;5027859;28;20076;-86
2023/12/11 00:09:05;;;;;;;1.10;0.50;;;;;;;11.76;100.00;101382.72;5034988;28;20121;-84
2023/12/11 00:11:34;;;;;;;0.70;0.50;;;;;;;11.79;100.00;101392.31;5030626;28;20046;-88
2023/12/11 00:14:03;;;;;;;1.30;0.63;;;;;;;11.80;100.00;101394.97;5029460;28;20472;-84
2023/12/11 00:16:34;;;;;;;0.85;0.52;;;;;;;11.82;100.00;101398.50;5029250;28;20103;-87
2023/12/11 00:19:04;;;;;;;1.25;0.80;;;;;;;11.81;100.00;101391.53;5031527;28;20049;-81
2023/12/11 00:21:36;;;;;;;1.17;0.65;;;;;;;11.83;100.00;101397.66;5038377;28;20061;-82
2023/12/11 00:24:08;;;;;;;0.80;0.55;;;;;;;11.86;100.00;101397.75;5040176;28;20053;-83
2023/12/11 00:26:37;;;;;;;1.15;0.55;;;;;;;11.88;100.00;101401.31;5043027;28;20058;-80
2023/12/11 00:29:06;;;;;;;1.05;0.73;;;;;;;11.90;100.00;101406.56;5049389;28;20068;-87
2023/12/11 00:31:35;;;;;;;1.83;0.60;;;;;;;11.90;100.00;101402.25;5035672;28;20056;-84
2023/12/11 00:34:06;;;;;;;1.67;0.60;;;;;;;11.92;100.00;101405.78;5027760;28;20754;-82
2023/12/11 00:36:34;;;;;;;1.17;0.60;;;;;;;11.91;100.00;101408.31;5026918;28;20057;-79
2023/12/11 00:39:03;;;;;;;0.73;0.50;;;;;;;11.88;100.00;101409.09;5028714;28;20048;-82
2023/12/11 00:41:33;;;;;;;0.60;0.47;;;;;;;11.90;100.00;101412.63;5024212;28;20042;-80
2023/12/11 00:44:01;;;;;;;0.70;0.43;;;;;;;11.89;100.00;101408.28;5025053;28;20054;-82
2023/12/11 00:46:30;;;;;;;0.80;0.50;;;;;;;11.91;100.00;101408.31;5025270;28;20061;-82
2023/12/11 00:48:59;;;;;;;0.85;0.50;;;;;;;11.91;100.00;101409.22;5022408;28;20080;-82
2023/12/11 00:51:29;;;;;;;1.00;0.70;;;;;;;11.97;100.00;101402.47;5023959;28;20120;-84
2023/12/11 00:53:59;;;;;;;1.13;0.80;;;;;;;11.93;100.00;101410.16;5021766;28;20053;-80
2023/12/11 00:56:27;;;;;;;1.13;0.60;;;;;;;11.92;100.00;101400.59;5022124;28;20462;-83
2023/12/11 00:58:56;;;;;;;0.57;0.40;;;;;;;11.91;100.00;101409.22;5025028;28;20050;-82
2023/12/11 01:01:26;;;;;;;2.78;0.75;;;;;;;11.87;100.00;101411.63;5025761;28;20917;-81
2023/12/11 01:03:54;;;;;;;0.63;0.60;;;;;;;11.90;100.00;101416.94;5023548;28;20534;-80
2023/12/11 01:06:23;;;;;;;2.28;0.60;;;;;;;11.90;100.00;101414.34;5026512;28;20113;-86
2023/12/11 01:08:53;;;;;;;1.13;0.50;;;;;;;11.94;100.00;101413.63;5021511;28;20081;-80
2023/12/11 01:11:22;;;;;;;1.15;0.80;;;;;;;11.93;100.00;101412.75;5022354;28;20060;-85
2023/12/11 01:13:51;;;;;;;1.08;0.57;;;;;;;11.99;100.00;101411.19;5025072;28;20047;-85
2023/12/11 01:16:20;;;;;;;1.15;0.73;;;;;;;11.98;100.00;101415.50;5027099;28;20396;-83
2023/12/11 01:18:49;;;;;;;3.85;0.90;;;;;;;11.95;100.00;101418.84;5025169;28;20057;-82
2023/12/11 01:21:18;;;;;;;1.10;0.63;;;;;;;11.92;100.00;101415.28;5020985;28;20059;-85
2023/12/11 01:23:47;;;;;;;1.45;0.70;;;;;;;11.91;100.00;101408.31;5024825;28;20502;-81
2023/12/11 01:26:19;;;;;;;1.65;0.70;;;;;;;11.89;100.00;101415.19;5027592;28;20133;-81
2023/12/11 01:28:53;;;;;;;1.35;0.95;;;;;;;11.87;100.00;101412.53;5034533;28;20147;-87
2023/12/11 01:31:22;;;;;;;1.25;0.70;;;;;;;11.87;100.00;101412.53;5040458;28;20475;-88
2023/12/11 01:33:54;;;;;;;0.90;0.50;;;;;;;11.87;100.00;101412.53;5035467;28;20072;-87
2023/12/11 01:36:25;;;;;;;0.95;0.60;;;;;;;11.86;100.00;101415.91;5046038;28;20097;-87
2023/12/11 01:38:54;;;;;;;1.10;0.73;;;;;;;11.84;100.00;101417.59;5029198;28;20101;-84
2023/12/11 01:41:24;;;;;;;1.20;0.80;;;;;;;11.87;100.00;101422.91;5027472;28;20065;-86
2023/12/11 01:43:57;;;;;;;1.30;1.00;;;;;;;11.87;100.00;101419.41;5025772;28;20045;-84
2023/12/11 01:46:26;;;;;;;0.88;0.65;;;;;;;11.89;100.00;101417.78;5025433;28;20487;-82
2023/12/11 01:48:55;;;;;;;1.48;0.63;;;;;;;11.88;100.00;101414.28;5026417;28;20052;-87
2023/12/11 01:51:25;;;;;;;1.15;0.73;;;;;;;11.86;100.00;101415.03;5026059;28;20063;-78
2023/12/11 01:53:54;;;;;;;1.85;0.90;;;;;;;11.87;100.00;101425.50;5025305;28;20131;-78
2023/12/11 01:56:25;;;;;;;1.17;0.80;;;;;;;11.88;100.00;101428.97;5024329;28;20041;-79
2023/12/11 01:58:54;;;;;;;1.58;0.90;;;;;;;11.87;100.00;101425.50;5028700;28;20041;-87
2023/12/11 02:01:24;;;;;;;2.28;0.85;;;;;;;11.91;100.00;101426.47;5028285;28;20049;-81
2023/12/11 02:03:53;;;;;;;1.48;0.90;;;;;;;11.93;100.00;101430.00;5035175;28;20033;-88
2023/12/11 02:06:23;;;;;;;1.35;0.88;;;;;;;11.94;100.00;101435.25;5041386;28;20128;-87
2023/12/11 02:08:52;;;;;;;2.33;1.20;;;;;;;11.97;100.00;101431.00;5028816;28;20052;-85
2023/12/11 02:11:21;;;;;;;1.65;0.77;;;;;;;11.98;100.00;101430.16;5033314;28;20494;-84
2023/12/11 02:13:51;;;;;;;1.23;0.80;;;;;;;11.94;100.00;101426.59;5032775;28;20080;-86
2023/12/11 02:16:20;;;;;;;1.48;0.88;;;;;;;11.89;100.00;101420.38;5029211;28;20483;-88
2023/12/11 02:18:49;;;;;;;1.20;0.80;;;;;;;11.86;100.00;101425.41;5033753;28;20045;-88
2023/12/11 02:21:18;;;;;;;2.13;0.80;;;;;;;11.86;100.00;101426.28;5029721;28;20056;-87
2023/12/11 02:23:53;;;;;;;1.95;1.00;;;;;;;11.85;100.00;101429.72;5033004;28;20049;-85
2023/12/11 02:26:26;;;;;;;1.60;0.90;;;;;;;11.85;100.00;101428.84;5029656;28;20089;-84
2023/12/11 02:28:59;;;;;;;1.27;0.80;;;;;;;11.85;100.00;101429.72;5013256;28;20301;-84
2023/12/11 02:31:28;;;;;;;1.90;0.70;;;;;;;11.84;100.00;101417.59;5019918;28;20045;-83
2023/12/11 02:33:56;;;;;;;2.08;0.82;;;;;;;11.87;100.00;101427.19;5019227;28;20061;-83
2023/12/11 02:36:25;;;;;;;2.78;0.88;;;;;;;11.86;100.00;101423.69;5017110;28;20048;-85
2023/12/11 02:38:54;;;;;;;3.80;1.40;;;;;;;11.90;100.00;101425.59;5027561;28;20042;-84
2023/12/11 02:41:24;;;;;;;2.22;1.23;;;;;;;11.95;100.00;101423.16;5024600;28;20201;-81
2023/12/11 02:43:53;;;;;;;6.53;1.63;;;;;;;11.97;100.00;101423.22;5021241;28;20089;-82
2023/12/11 02:46:25;;;;;;;1.00;0.85;;;;;;;12.00;100.00;101418.13;5023629;28;20089;-81
2023/12/11 02:48:54;;;;;;;1.95;1.20;;;;;;;12.04;100.00;101417.41;5009348;28;20108;-80
2023/12/11 02:51:23;;;;;;;3.28;1.30;;;;;;;12.03;100.00;101413.06;5010064;28;20683;-81
2023/12/11 02:53:52;;;;;;;2.33;1.33;;;;;;;12.01;100.00;101415.59;5006775;28;20165;-81
2023/12/11 02:56:21;;;;;;;1.70;1.10;;;;;;;12.01;100.00;101414.72;5006430;28;20050;-87
2023/12/11 02:58:54;;;;;;;2.00;1.17;;;;;;;12.01;100.00;101412.13;5003301;28;20512;-84
2023/12/11 03:01:23;;;;;;;2.28;1.25;;;;;;;12.03;100.00;101415.66;5007594;28;20050;-83
2023/12/11 03:03:52;;;;;;;3.92;1.23;;;;;;;12.03;100.00;101418.28;5010037;28;20042;-86
2023/12/11 03:06:20;;;;;;;1.25;0.85;;;;;;;12.07;100.00;101420.09;5009569;28;20046;-83
2023/12/11 03:08:52;;;;;;;2.08;1.25;;;;;;;12.07;100.00;101414.91;5008710;28;20359;-85
2023/12/11 03:11:21;;;;;;;1.60;1.17;;;;;;;12.07;100.00;101414.91;5010425;28;20041;-83
2023/12/11 03:13:51;;;;;;;1.70;1.10;;;;;;;12.05;100.00;101416.56;5008289;28;20045;-82
2023/12/11 03:16:20;;;;;;;3.75;1.52;;;;;;;12.07;100.00;101420.09;5006313;28;20646;-83
2023/12/11 03:18:49;;;;;;;2.03;0.93;;;;;;;12.09;100.00;101419.31;5010472;28;20554;-83
2023/12/11 03:21:18;;;;;;;1.77;1.10;;;;;;;12.07;100.00;101415.81;5011352;28;20727;-89
2023/12/11 03:23:46;;;;;;;2.58;1.58;;;;;;;12.01;100.00;101415.59;5007615;28;20042;-82
2023/12/11 03:26:15;;;;;;;1.45;1.10;;;;;;;12.02;100.00;101416.47;5018583;28;20049;-85
2023/12/11 03:28:44;;;;;;;2.85;1.23;;;;;;;12.02;100.00;101417.34;5032500;28;20544;-87
2023/12/11 03:31:14;;;;;;;1.67;1.20;;;;;;;12.02;100.00;101411.28;5030331;28;20090;-84
2023/12/11 03:33:43;;;;;;;1.42;1.13;;;;;;;12.01;100.00;101417.31;5025223;28;20049;-81
2023/12/11 03:36:11;;;;;;;2.35;1.45;;;;;;;11.98;100.00;101412.00;5029411;28;20040;-83
2023/12/11 03:38:48;;;;;;;1.50;1.27;;;;;;;12.00;100.00;101412.94;5028098;28;21135;-86
2023/12/11 03:41:18;;;;;;;2.00;1.25;;;;;;;11.98;100.00;101414.59;5038239;28;20584;-84
2023/12/11 03:43:49;;;;;;;2.28;1.70;;;;;;;11.98;100.00;101414.59;5033238;28;20101;-85
2023/12/11 03:46:19;;;;;;;2.40;1.50;;;;;;;11.95;100.00;101411.06;5027498;28;20132;-82
2023/12/11 03:48:48;;;;;;;2.67;1.48;;;;;;;11.94;100.00;101409.31;5027176;28;20042;-83
2023/12/11 03:51:17;;;;;;;3.45;1.65;;;;;;;11.92;100.00;101398.00;5026400;28;20414;-85
2023/12/11 03:53:45;;;;;;;5.20;1.52;;;;;;;11.90;100.00;101391.00;5026012;28;20058;-83
2023/12/11 03:56:14;;;;;;;2.05;1.50;;;;;;;11.94;100.00;101404.13;5022684;28;20535;-84
2023/12/11 03:58:43;;;;;;;2.38;1.92;;;;;;;11.97;100.00;101400.75;5027044;28;20403;-84
2023/12/11 04:01:12;;;;;;;2.78;1.80;;;;;;;11.98;100.00;101396.44;5025959;28;20037;-83
2023/12/11 04:03:43;;;;;;;3.85;2.25;;;;;;;12.00;100.00;101407.75;5026004;28;20407;-74
2023/12/11 04:06:12;;;;;;;2.65;1.70;;;;;;;11.97;100.00;101398.16;5024994;28;20055;-86
2023/12/11 04:08:44;;;;;;;3.58;1.40;;;;;;;11.95;100.00;101394.63;5035205;28;20037;-86
2023/12/11 04:11:13;;;;;;;3.95;1.98;;;;;;;11.95;100.00;101392.91;5029630;28;20265;-87
2023/12/11 04:13:42;;;;;;;2.38;1.70;;;;;;;11.97;100.00;101397.28;5030323;28;20096;-87
2023/12/11 04:16:11;;;;;;;2.38;1.65;;;;;;;11.95;100.00;101389.44;5026308;28;20053;-85
2023/12/11 04:18:42;;;;;;;2.40;1.60;;;;;;;11.97;100.00;101397.28;5028183;28;20050;-86
2023/12/11 04:21:11;;;;;;;3.88;2.17;;;;;;;11.98;100.00;101383.47;5022622;28;20170;-86
2023/12/11 04:23:40;;;;;;;2.35;1.90;;;;;;;12.00;100.00;101387.88;5028101;28;20050;-84
2023/12/11 04:26:08;;;;;;;2.25;1.70;;;;;;;11.95;100.00;101379.09;5027316;28;20059;-86
2023/12/11 04:28:37;;;;;;;2.92;2.05;;;;;;;11.92;100.00;101390.25;5038355;28;20048;-89
2023/12/11 04:31:06;;;;;;;3.35;2.10;;;;;;;11.90;100.00;101386.69;5043239;28;20041;-87
2023/12/11 04:33:37;;;;;;;3.05;1.95;;;;;;;11.85;100.00;101385.63;5042796;28;20054;-89
2023/12/11 04:36:13;;;;;;;3.40;2.38;;;;;;;11.80;100.00;101378.56;5043716;28;20050;-87
2023/12/11 04:38:42;;;;;;;3.42;2.08;;;;;;;11.79;100.00;101385.41;5043145;28;20037;-88
2023/12/11 04:41:10;;;;;;;4.00;1.98;;;;;;;11.74;100.00;101386.97;5043944;28;20128;-88
2023/12/11 04:43:43;;;;;;;3.70;2.17;;;;;;;11.74;100.00;101386.97;5035722;28;20041;-88
2023/12/11 04:46:11;;;;;;;3.35;1.83;;;;;;;11.76;100.00;101387.91;5037392;28;20153;-85
2023/12/11 04:48:40;;;;;;;4.25;2.00;;;;;;;11.81;100.00;101390.66;5039344;28;20041;-88
2023/12/11 04:51:11;;;;;;;2.33;1.88;;;;;;;11.85;100.00;101387.34;5032233;28;20150;-88
2023/12/11 04:53:40;;;;;;;3.05;1.98;;;;;;;11.86;100.00;101384.78;5035224;28;20044;-87
2023/12/11 04:56:10;;;;;;;2.45;1.70;;;;;;;11.88;100.00;101383.16;5033654;28;21120;-84
2023/12/11 04:58:39;;;;;;;2.67;1.83;;;;;;;11.87;100.00;101381.41;5032294;28;20042;-87
2023/12/11 05:01:08;;;;;;;5.93;2.47;;;;;;;11.86;100.00;101379.59;5046606;28;20037;-87
2023/12/11 05:03:36;;;;;;;3.70;2.05;;;;;;;11.85;100.00;101377.84;5049230;28;20035;-86
2023/12/11 05:06:06;;;;;;;3.50;1.90;;;;;;;11.84;100.00;101376.13;5047936;28;20097;-87
2023/12/11 05:08:37;;;;;;;3.58;2.10;;;;;;;11.85;100.00;101380.44;5050620;28;20095;-88
2023/12/11 05:11:06;;;;;;;3.30;2.20;;;;;;;11.80;100.00;101378.56;5038188;28;20092;-85
2023/12/11 05:13:35;;;;;;;3.15;2.40;;;;;;;11.78;100.00;101373.31;5035365;28;20257;-88
2023/12/11 05:16:04;;;;;;;4.13;2.05;;;;;;;11.78;100.00;101383.66;5040153;28;20528;-90
2023/12/11 05:18:37;;;;;;;4.60;2.03;;;;;;;11.77;100.00;101383.59;5033862;28;20099;-85
2023/12/11 05:21:09;;;;;;;5.88;1.95;;;;;;;11.77;100.00;101387.06;5031987;28;20049;-87
2023/12/11 05:23:39;;;;;;;5.38;2.35;;;;;;;11.77;100.00;101391.38;5030396;28;20046;-89
2023/12/11 05:26:08;;;;;;;3.25;2.65;;;;;;;11.76;100.00;101392.22;5040027;28;20049;-86
2023/12/11 05:28:47;;;;;;;3.90;1.90;;;;;;;11.75;100.00;101391.34;5042736;28;20116;-87
2023/12/11 05:31:16;;;;;;;3.78;1.90;;;;;;;11.74;100.00;101405.13;5034919;28;20025;-87
2023/12/11 05:33:45;;;;;;;5.93;1.88;;;;;;;11.66;100.00;101394.50;5035264;28;20053;-84
2023/12/11 05:36:13;;;;;;;3.22;1.90;;;;;;;11.73;100.00;101408.56;5038053;28;20099;-85
2023/12/11 05:38:47;;;;;;;4.80;2.47;;;;;;;11.78;100.00;101411.31;5032844;28;20037;-88
2023/12/11 05:41:18;;;;;;;5.35;1.98;;;;;;;11.81;100.00;101420.06;5037581;28;20542;-88
2023/12/11 05:43:47;;;;;;;6.10;2.53;;;;;;;11.83;100.00;101418.41;5039504;28;20041;-88
2023/12/11 05:46:16;;;;;;;6.00;2.90;;;;;;;11.87;100.00;101422.91;5045758;28;20046;-89
2023/12/11 05:48:47;;;;;;;8.00;2.63;;;;;;;11.91;100.00;101419.59;5046446;28;20048;-86
2023/12/11 05:51:15;;;;;;;6.55;2.70;;;;;;;11.92;100.00;101416.16;5033307;28;20056;-87
2023/12/11 05:53:46;;;;;;;4.97;2.20;;;;;;;11.91;100.00;101419.59;5033606;28;20049;-87
2023/12/11 05:56:15;;;;;;;3.17;1.98;;;;;;;11.89;100.00;101410.88;5032171;28;20620;-88
2023/12/11 05:58:43;;;;;;;3.92;1.98;;;;;;;11.90;100.00;101410.03;5024717;28;20631;-85
2023/12/11 06:01:12;;;;;;;5.95;2.03;;;;;;;11.88;100.00;101403.91;5028899;28;20050;-88
2023/12/11 06:03:41;;;;;;;5.63;1.95;;;;;;;11.86;100.00;101405.53;5028640;28;20050;-86
2023/12/11 06:06:16;;;;;;;2.97;2.17;;;;;;;11.87;100.00;101404.75;5028181;28;20049;-87
2023/12/11 06:08:52;;;;;;;4.78;2.25;;;;;;;11.83;100.00;101405.44;5028123;28;20665;-86
2023/12/11 06:11:21;;;;;;;5.18;2.40;;;;;;;11.79;100.00;101403.56;5025787;28;20041;-85
2023/12/11 06:13:50;;;;;;;3.40;2.05;;;;;;;11.80;100.00;101402.75;5027513;28;20455;-87
2023/12/11 06:16:20;;;;;;;4.57;2.50;;;;;;;11.83;100.00;101400.25;5031079;28;20063;-86
2023/12/11 06:18:51;;;;;;;5.93;2.88;;;;;;;11.85;100.00;101398.59;5030207;28;20103;-86
2023/12/11 06:21:20;;;;;;;4.25;2.53;;;;;;;11.78;100.00;101390.56;5028875;28;20132;-87
2023/12/11 06:23:51;;;;;;;5.97;2.47;;;;;;;11.82;100.00;101398.50;5028919;28;20045;-87
2023/12/11 06:26:35;;;;;;;5.85;2.38;;;;;;;11.82;100.00;101398.50;5033112;28;20053;-86
2023/12/11 06:29:04;;;;;;;3.20;2.15;;;;;;;11.82;100.00;101398.50;5027073;28;20049;-85
2023/12/11 06:31:33;;;;;;;2.90;1.52;;;;;;;11.81;100.00;101401.91;5026120;28;20057;-85
2023/12/11 06:34:02;;;;;;;6.05;2.33;;;;;;;11.78;100.00;101396.63;5027555;28;20067;-86
2023/12/11 06:36:30;;;;;;;2.78;2.20;;;;;;;11.81;100.00;101407.09;5025448;28;20068;-86
2023/12/11 06:39:01;;;;;;;6.18;2.00;;;;;;;11.81;100.00;101399.31;5028681;28;20045;-85
2023/12/11 06:41:31;;;;;;;4.63;2.38;;;;;;;11.82;100.00;101398.50;5025996;28;20502;-86
2023/12/11 06:43:59;;;;;;;5.40;2.20;;;;;;;11.85;100.00;101398.59;5026805;28;20057;-86
2023/12/11 06:46:29;;;;;;;5.63;2.40;;;;;;;11.86;100.00;101397.75;5032921;28;20053;-86
2023/12/11 06:49:00;;;;;;;2.42;1.88;;;;;;;11.84;100.00;101395.94;5023278;28;20066;-85
2023/12/11 06:51:29;;;;;;;3.72;2.03;;;;;;;11.82;100.00;101390.72;5029965;28;20053;-87
2023/12/11 06:53:58;;;;;;;3.40;2.13;;;;;;;11.83;100.00;101395.06;5031020;28;20046;-88
2023/12/11 06:56:30;;;;;;;3.75;2.55;;;;;;;11.83;100.00;101400.25;5031871;28;20480;-87
2023/12/11 06:58:59;;;;;;;4.03;2.55;;;;;;;11.86;100.00;101397.75;5032386;28;20081;-86
2023/12/11 07:01:30;;;;;;;5.00;2.45;;;;;;;11.87;100.00;101396.97;5031011;28;20143;-88
2023/12/11 07:03:59;;;;;;;4.28;1.85;;;;;;;11.92;100.00;101399.72;5033802;28;20053;-87
2023/12/11 07:06:28;;;;;;;3.63;2.22;;;;;;;11.92;100.00;101404.91;5029977;28;20060;-86
2023/12/11 07:08:58;;;;;;;5.40;2.25;;;;;;;11.89;100.00;101400.50;5045475;28;20053;-89
2023/12/11 07:11:28;;;;;;;3.42;2.55;;;;;;;11.87;100.00;101396.97;5040739;28;20079;-87
2023/12/11 07:13:57;;;;;;;3.97;2.13;;;;;;;11.89;100.00;101408.28;5039145;28;20076;-86
2023/12/11 07:16:25;;;;;;;8.13;2.28;;;;;;;11.92;100.00;101402.31;5033204;28;20049;-88
2023/12/11 07:18:54;;;;;;;3.70;2.20;;;;;;;11.95;100.00;101399.81;5038725;28;20053;-86
2023/12/11 07:21:23;;;;;;;3.33;2.20;;;;;;;11.96;100.00;101401.59;5036326;28;20041;-86
2023/12/11 07:23:51;;;;;;;3.25;2.20;;;;;;;11.95;100.00;101407.59;5049380;28;20041;-88
2023/12/11 07:26:20;;;;;;;10.38;2.28;;;;;;;11.92;100.00;101404.91;5051399;28;20044;-85
2023/12/11 07:28:52;;;;;;;4.18;2.17;;;;;;;11.90;100.00;101407.44;5045621;28;20052;-88
2023/12/11 07:31:21;;;;;;;4.82;2.60;;;;;;;11.90;100.00;101417.81;5040097;28;20052;-87
2023/12/11 07:33:49;;;;;;;3.72;2.05;;;;;;;11.86;100.00;101415.91;5030277;28;20110;-87
2023/12/11 07:36:18;;;;;;;3.22;2.00;;;;;;;11.87;100.00;101412.53;5037629;28;20396;-87
2023/12/11 07:38:47;;;;;;;5.95;2.53;;;;;;;11.88;100.00;101416.00;5031716;28;20063;-89
2023/12/11 07:41:21;;;;;;;3.05;2.15;;;;;;;11.89;100.00;101413.47;5033046;28;20060;-88
2023/12/11 07:43:54;;;;;;;3.30;2.00;;;;;;;11.89;100.00;101410.00;5031683;28;20091;-87
2023/12/11 07:46:23;;;;;;;3.47;2.35;;;;;;;11.87;100.00;101402.16;5032642;28;20491;-87
2023/12/11 07:48:52;;;;;;;4.07;2.72;;;;;;;11.84;100.00;101402.03;5034898;28;20046;-89
2023/12/11 07:51:21;;;;;;;7.00;3.30;;;;;;;11.83;100.00;101394.19;5035324;28;20095;-88
2023/12/11 07:53:50;;;;;;;7.53;3.45;;;;;;;11.83;100.00;101394.19;5033616;28;20042;-87
2023/12/11 07:56:22;;;;;;;7.18;3.08;;;;;;;11.82;100.00;101393.31;5030778;28;20141;-88
2023/12/11 07:58:53;;;;;;;5.90;2.70;;;;;;;11.83;100.00;101389.88;5030662;28;20045;-87
2023/12/11 08:01:22;;;;;;;3.90;2.50;;;;;;;11.84;100.00;101393.34;5036319;28;20423;-87
2023/12/11 08:03:51;;;;;;;5.10;3.03;;;;;;;11.89;100.00;101392.72;5030675;28;20049;-87
2023/12/11 08:06:20;;;;;;;5.70;2.47;;;;;;;11.87;100.00;101386.63;5028605;28;20508;-87
2023/12/11 08:08:49;;;;;;;5.22;2.40;;;;;;;11.88;100.00;101387.50;5030624;28;20049;-87
2023/12/11 08:11:19;;;;;;;3.28;2.38;;;;;;;11.87;100.00;101384.03;5034977;28;20087;-88
2023/12/11 08:13:47;;;;;;;4.55;2.75;;;;;;;11.86;100.00;101382.19;5035220;28;20050;-86
2023/12/11 08:16:22;;;;;;;4.47;2.50;;;;;;;11.85;100.00;101388.22;5035430;28;20056;-87
2023/12/11 08:18:51;;;;;;;3.28;2.25;;;;;;;11.87;100.00;101396.06;5033938;28;20133;-89
2023/12/11 08:21:19;;;;;;;7.93;2.67;;;;;;;11.88;100.00;101397.84;5034307;28;20447;-88
2023/12/11 08:23:49;;;;;;;6.90;3.17;;;;;;;11.86;100.00;101402.94;5029346;28;20041;-86
2023/12/11 08:26:19;;;;;;;9.27;3.58;;;;;;;11.84;100.00;101395.94;5027922;28;20439;-85
2023/12/11 08:28:54;;;;;;;4.57;3.05;;;;;;;11.82;100.00;101397.59;5023823;28;20545;-85
2023/12/11 08:31:25;;;;;;;7.50;3.47;;;;;;;11.81;100.00;101394.13;5024234;28;20567;-85
2023/12/11 08:33:53;;;;;;;7.28;3.70;;;;;;;11.81;100.00;101401.91;5025413;28;20041;-85
2023/12/11 08:36:24;;;;;;;12.50;4.38;;;;;;;11.83;100.00;101389.88;5027623;28;20049;-87
2023/12/11 08:38:53;;;;;;;10.73;3.80;;;;;;;11.83;100.00;101389.88;5025956;28;20528;-85
2023/12/11 08:41:22;;;;;;;5.93;3.30;;;;;;;11.86;100.00;101389.09;5023207;28;20057;-86
2023/12/11 08:43:51;;;;;;;7.68;3.55;;;;;;;11.90;100.00;101385.84;5024839;28;20045;-86
2023/12/11 08:46:19;;;;;;;6.03;2.90;;;;;;;11.90;100.00;101381.50;5026764;28;20562;-86
2023/12/11 08:48:53;;;;;;;7.25;3.70;;;;;;;11.86;100.00;101384.78;5023579;28;20053;-86
2023/12/11 08:51:22;;;;;;;13.30;3.55;;;;;;;11.80;100.00;101379.41;5024096;28;20128;-86
2023/12/11 08:53:50;;;;;;;6.28;2.78;;;;;;;11.81;100.00;101385.47;5021973;28;20041;-85
2023/12/11 08:56:23;;;;;;;7.25;3.03;;;;;;;11.81;100.00;101386.34;5026412;28;20080;-87
2023/12/11 08:58:52;;;;;;;6.13;2.70;;;;;;;11.81;100.00;101391.53;5026755;28;20385;-86
2023/12/11 09:01:21;;;;;;;5.55;3.10;;;;;;;11.80;100.00;101389.78;5027214;28;20393;-86
2023/12/11 09:03:51;;;;;;;5.03;2.70;;;;;;;11.78;100.00;101383.66;5027765;28;20065;-86
2023/12/11 09:06:20;;;;;;;5.80;3.17;;;;;;;11.80;100.00;101386.31;5019179;28;20080;-87
2023/12/11 09:08:51;;;;;;;6.18;3.15;;;;;;;11.79;100.00;101385.41;5027795;28;20060;-87
2023/12/11 09:11:28;;;;;;;5.05;2.42;;;;;;;11.79;100.00;101381.94;5027391;28;20561;-87
2023/12/11 09:13:57;;;;;;;5.15;2.67;;;;;;;11.79;100.00;101382.81;5030396;28;20053;-88
2023/12/11 09:16:26;;;;;;;5.93;2.80;;;;;;;11.82;100.00;101380.34;5027897;28;20051;-88
2023/12/11 09:18:57;;;;;;;4.10;2.65;;;;;;;11.79;100.00;101376.75;5031052;28;20049;-87
2023/12/11 09:21:26;;;;;;;3.92;2.75;;;;;;;11.83;100.00;101384.69;5033757;28;20076;-89
2023/12/11 09:23:55;;;;;;;5.18;2.53;;;;;;;11.82;100.00;101382.94;5048647;28;20041;-89
2023/12/11 09:26:24;;;;;;;4.00;2.70;;;;;;;11.81;100.00;101381.16;5046549;28;20407;-91
2023/12/11 09:28:55;;;;;;;4.70;2.30;;;;;;;11.80;100.00;101386.31;5039227;28;20077;-87
2023/12/11 09:31:25;;;;;;;4.65;2.38;;;;;;;11.81;100.00;101394.13;5031410;28;20065;-86
2023/12/11 09:33:56;;;;;;;4.88;2.78;;;;;;;11.79;100.00;101388.00;5033720;28;20052;-87
2023/12/11 09:36:25;;;;;;;4.03;2.28;;;;;;;11.79;100.00;101397.50;5038288;28;20132;-88
2023/12/11 09:38:55;;;;;;;4.18;2.08;;;;;;;11.74;100.00;101386.97;5041144;28;20057;-89
2023/12/11 09:41:24;;;;;;;6.20;2.63;;;;;;;11.78;100.00;101386.25;5046064;28;20097;-89
2023/12/11 09:43:53;;;;;;;4.35;2.58;;;;;;;11.80;100.00;101394.09;5049645;28;20041;-88
2023/12/11 09:46:22;;;;;;;3.78;2.50;;;;;;;11.79;100.00;101398.38;5050428;28;20056;-88
2023/12/11 09:48:51;;;;;;;4.53;2.40;;;;;;;11.78;100.00;101400.94;5045155;28;20084;-90
2023/12/11 09:51:21;;;;;;;4.47;2.35;;;;;;;11.74;100.00;101402.53;5034597;28;20055;-89
2023/12/11 09:53:54;;;;;;;4.78;2.58;;;;;;;11.74;100.00;101403.41;5030453;28;20495;-87
2023/12/11 09:56:23;;;;;;;4.13;2.35;;;;;;;11.75;100.00;101412.09;5028617;28;20046;-87
2023/12/11 09:58:53;;;;;;;3.55;1.80;;;;;;;11.74;100.00;101408.59;5029000;28;20486;-88
2023/12/11 10:01:22;;;;;;;5.13;2.20;;;;;;;11.72;100.00;101409.38;5027445;28;20511;-88
2023/12/11 10:03:53;;;;;;;3.63;1.85;;;;;;;11.73;100.00;101419.81;5029566;28;20060;-87
2023/12/11 10:06:24;;;;;;;4.55;2.75;;;;;;;11.74;100.00;101415.50;5032960;28;20056;-87
2023/12/11 10:08:53;;;;;;;4.13;2.22;;;;;;;11.74;100.00;101418.09;5030136;28;20423;-88
2023/12/11 10:11:33;;;;;;;;;;;;;;;;;;;;;
2023/12/11 10:14:13;;;;;;;5.20;2.03;;;;;;;11.74;100.00;101425.88;5026567;28;20050;-89
2023/12/11 10:16:44;;;;;;;5.35;2.55;;;;;;;11.75;100.00;101425.06;5032604;28;20049;-89
2023/12/11 10:19:12;;;;;;;5.22;2.38;;;;;;;11.77;100.00;101433.75;5032597;28;20474;-90
2023/12/11 10:21:43;;;;;;;4.35;2.42;;;;;;;11.76;100.00;101429.41;5035292;28;20051;-88
2023/12/11 10:24:14;;;;;;;5.78;2.70;;;;;;;11.71;100.00;101426.66;5040736;28;20068;-88
2023/12/11 10:26:48;;;;;;;4.05;2.15;;;;;;;11.58;100.00;101403.69;5046553;28;20057;-88
2023/12/11 10:29:24;;;;;;;6.65;2.85;;;;;;;11.69;100.00;101422.22;5041212;28;20053;-88
2023/12/11 10:31:53;;;;;;;6.93;2.63;;;;;;;11.70;100.00;101426.56;5039214;28;20046;-88
2023/12/11 10:34:42;;;;;;;4.60;2.25;;;;;;;11.68;100.00;101434.31;5039248;28;20423;-89
2023/12/11 10:37:13;;;;;;;7.60;2.38;;;;;;;11.72;100.00;101435.28;5036635;28;20096;-89
2023/12/11 10:39:53;;;;;;;5.33;2.60;;;;;;;11.69;100.00;101422.22;5033231;28;20095;-89
2023/12/11 10:42:22;;;;;;;5.07;2.10;;;;;;;11.70;100.00;101423.97;5034538;28;20053;-87
2023/12/11 10:44:51;;;;;;;3.65;2.25;;;;;;;11.72;100.00;101437.88;5031654;28;20041;-88
2023/12/11 10:47:20;;;;;;;7.47;2.17;;;;;;;11.74;100.00;101441.41;5033233;28;20164;-88
2023/12/11 10:49:49;;;;;;;4.50;1.95;;;;;;;11.71;100.00;101431.81;5029864;28;20049;-88
2023/12/11 10:52:22;;;;;;;4.47;2.25;;;;;;;11.63;100.00;101411.63;5031618;28;20055;-87
2023/12/11 10:54:50;;;;;;;;;;;;;;;11.65;100.00;101425.53;5030296;28;20057;-88
2023/12/11 10:57:21;;;;;;;5.15;2.30;;;;;;;11.57;100.00;101424.38;5031162;28;19921;-88
2023/12/11 10:59:55;;;;;;;6.68;2.05;;;;;;;11.48;100.00;101420.63;5032254;28;20060;-89
2023/12/11 11:02:26;;;;;;;4.50;2.33;;;;;;;11.45;100.00;101420.53;5036854;28;20137;-87
2023/12/11 11:04:56;;;;;;;8.57;3.05;;;;;;;11.46;100.00;101429.19;5035918;28;20101;-90
2023/12/11 11:07:32;;;;;;;4.88;2.47;;;;;;;11.49;100.00;101427.56;5040606;28;20064;-88
2023/12/11 11:10:07;;;;;;;5.85;2.38;;;;;;;11.50;100.00;101421.56;5046668;28;20387;-89
2023/12/11 11:12:44;;;;;;;5.45;2.65;;;;;;;11.54;100.00;101422.56;5036269;28;20050;-89
2023/12/11 11:15:13;;;;;;;7.68;2.53;;;;;;;11.56;100.00;101427.81;5035407;28;20038;-87
2023/12/11 11:18:00;;;;;;;4.00;1.73;;;;;;;11.55;100.00;101419.16;5040801;28;20049;-88
2023/12/11 11:20:36;;;;;;;4.78;2.40;;;;;;;11.51;100.00;101423.31;5044523;28;20060;-87
2023/12/11 11:23:32;;;;;;;4.80;2.40;;;;;;;11.51;100.00;101420.72;5051421;28;20069;-88
2023/12/11 11:26:01;;;;;;;4.43;2.20;;;;;;;11.50;100.00;101421.56;5042756;28;20049;-87
2023/12/11 11:28:50;;;;;;;5.93;2.58;;;;;;;11.46;100.00;101424.88;5048948;28;20072;-89
2023/12/11 11:31:18;;;;;;;2.97;1.60;;;;;;;11.44;100.00;101425.66;5035673;28;20045;-86
2023/12/11 11:33:49;;;;;;;4.10;1.70;;;;;;;11.44;100.00;101426.53;5038054;28;20057;-88